Time;durP1;ratioP1;P1;durP2;ratioP2;P2;SDS_P1;SDS_P2;PMS_P1;PMS_P2;Temp;Humidity;BMP_temperature;BMP_pressure;BME280_temperature;BME280_humidity;BME280_pressure;Samples;Min_cycle;Max_cycle;Signal;HPM_P1;HPM_P2
2024/01/18 00:00:47;;;;;;;19.70;12.03;;;;;;;-143.21;72.45;72905.16;4916469;29;20198;-94
2024/01/18 00:03:16;;;;;;;22.27;13.37;;;;;;;-143.21;71.97;72905.16;4916787;29;20234;-95
2024/01/18 00:05:46;;;;;;;23.07;12.43;;;;;;;-143.21;71.82;72877.38;4919103;29;20210;-96
2024/01/18 00:08:13;;;;;;;21.30;12.43;;;;;;;-143.21;72.20;72889.28;4920157;29;20770;-95
2024/01/18 00:10:40;;;;;;;18.83;12.33;;;;;;;-143.21;71.55;72871.44;4918488;29;20225;-93
2024/01/18 00:13:07;;;;;;;22.30;13.53;;;;;;;-143.21;71.34;72859.53;4910027;29;20210;-93
2024/01/18 00:15:35;;;;;;;21.67;13.43;;;;;;;-143.21;71.86;72871.44;4914563;29;20241;-93
2024/01/18 00:18:04;;;;;;;20.73;12.80;;;;;;;-143.21;71.72;72869.44;4912698;29;20217;-93
2024/01/18 00:20:30;;;;;;;24.27;13.87;;;;;;;-143.21;71.68;72859.53;4915273;29;20818;-93
2024/01/18 00:22:57;;;;;;;22.60;12.47;;;;;;;-143.21;72.49;72869.44;4915462;29;20214;-93
2024/01/18 00:25:24;;;;;;;23.13;13.47;;;;;;;-143.21;72.54;72865.47;4914528;29;20209;-94
2024/01/18 00:27:51;;;;;;;21.30;13.20;;;;;;;-143.21;72.65;72863.50;4914756;29;20693;-93
2024/01/18 00:30:18;;;;;;;22.33;13.67;;;;;;;-143.21;73.10;72867.47;4912703;29;20560;-93
2024/01/18 00:32:46;;;;;;;27.37;15.17;;;;;;;-143.21;73.43;72859.53;4916387;29;20266;-93
2024/01/18 00:35:13;;;;;;;27.27;13.90;;;;;;;-143.21;73.63;72855.56;4912365;29;20214;-93
2024/01/18 00:37:40;;;;;;;25.13;13.90;;;;;;;-143.21;73.51;72857.53;4915658;29;20216;-94
2024/01/18 00:40:08;;;;;;;21.43;13.57;;;;;;;-143.21;73.80;72861.50;4911950;29;20597;-93
2024/01/18 00:42:35;;;;;;;22.90;13.37;;;;;;;-143.21;73.87;72859.53;4909750;29;20213;-93
2024/01/18 00:45:02;;;;;;;20.90;12.70;;;;;;;-143.21;73.70;72843.66;4915070;29;20198;-92
2024/01/18 00:47:29;;;;;;;23.10;13.97;;;;;;;-143.21;73.59;72839.69;4931300;29;20222;-94
2024/01/18 00:49:57;;;;;;;22.57;14.33;;;;;;;-143.21;73.45;72829.78;4917021;29;20260;-94
2024/01/18 00:52:25;;;;;;;26.07;14.80;;;;;;;-143.21;73.26;72825.81;4913582;29;20222;-94
2024/01/18 00:54:52;;;;;;;27.73;16.53;;;;;;;-143.21;73.41;72833.75;4913014;29;20209;-92
2024/01/18 00:57:19;;;;;;;27.73;16.80;;;;;;;-143.21;73.99;72823.81;4913791;29;20211;-94
2024/01/18 00:59:46;;;;;;;30.17;16.87;;;;;;;-143.21;74.80;72847.63;4918098;29;20720;-93
2024/01/18 01:05:01;;;;;;;29.83;16.67;;;;;;;-143.21;75.59;72845.63;4921068;29;20225;-93
2024/01/18 01:07:28;;;;;;;33.00;17.77;;;;;;;-143.21;75.88;72845.63;4923843;29;20254;-94
2024/01/18 01:09:55;;;;;;;32.30;18.50;;;;;;;-143.21;76.04;72837.72;4912995;29;20237;-94
2024/01/18 01:12:22;;;;;;;32.50;18.33;;;;;;;-143.21;76.98;72849.59;4915507;29;20675;-94
2024/01/18 01:14:49;;;;;;;35.20;18.27;;;;;;;-143.21;77.64;72845.63;4914353;29;20209;-93
2024/01/18 01:17:16;;;;;;;31.93;18.20;;;;;;;-143.21;77.72;72839.69;4913013;29;20895;-93
2024/01/18 01:19:43;;;;;;;32.30;18.90;;;;;;;-143.21;78.19;72847.63;4910839;29;20211;-93
2024/01/18 01:22:12;;;;;;;34.03;18.67;;;;;;;-143.21;78.89;72845.63;4912915;29;20216;-92
2024/01/18 01:24:39;;;;;;;34.67;18.53;;;;;;;-143.21;79.14;72835.72;4915807;29;20234;-93
2024/01/18 01:27:06;;;;;;;31.23;18.03;;;;;;;-143.21;79.14;72835.72;4918392;29;20201;-93
2024/01/18 01:29:33;;;;;;;32.17;18.03;;;;;;;-143.21;79.90;72837.72;4931727;29;20298;-92
2024/01/18 01:32:00;;;;;;;31.87;18.07;;;;;;;-143.21;80.75;72841.69;4913791;29;20278;-93
2024/01/18 01:34:27;;;;;;;29.97;18.07;;;;;;;-143.21;80.69;72851.59;4908320;29;20218;-93
2024/01/18 01:36:54;;;;;;;29.50;17.67;;;;;;;-143.21;81.67;72837.72;4911398;29;20206;-92
2024/01/18 01:39:22;;;;;;;29.80;18.27;;;;;;;-143.21;81.26;72827.78;4912301;29;20237;-92
2024/01/18 01:41:49;;;;;;;35.80;19.57;;;;;;;-143.21;81.10;72819.84;4910614;29;20209;-93
2024/01/18 01:44:16;;;;;;;32.50;19.87;;;;;;;-143.21;81.23;72813.91;4909503;29;20222;-94
2024/01/18 01:46:43;;;;;;;40.87;23.00;;;;;;;-143.21;81.58;72817.88;4910287;29;20214;-93
2024/01/18 01:49:10;;;;;;;36.17;21.10;;;;;;;-143.21;81.71;72809.94;4918823;29;20324;-93
2024/01/18 01:51:41;;;;;;;38.07;21.07;;;;;;;-143.21;81.84;72811.94;4911716;29;20686;-94
2024/01/18 01:54:09;;;;;;;34.93;19.10;;;;;;;-143.21;82.18;72813.91;4910498;29;20214;-93
2024/01/18 01:56:38;;;;;;;30.20;19.43;;;;;;;-143.21;82.64;72815.88;4913864;29;20667;-94
2024/01/18 01:59:09;;;;;;;31.03;18.90;;;;;;;-143.21;82.96;72827.78;4909590;29;20206;-94
2024/01/18 02:01:36;;;;;;;35.23;19.30;;;;;;;-143.21;82.86;72817.88;4911055;29;20217;-94
2024/01/18 02:04:04;;;;;;;33.87;19.27;;;;;;;-143.21;82.88;72796.06;4912750;29;20244;-94
2024/01/18 02:06:34;;;;;;;31.90;18.93;;;;;;;-143.21;83.10;72807.97;4912423;29;20576;-94
2024/01/18 02:09:02;;;;;;;32.50;18.63;;;;;;;-143.21;83.79;72811.94;4911942;29;20237;-93
2024/01/18 02:11:29;;;;;;;34.93;21.37;;;;;;;-143.21;83.65;72805.97;4910338;29;20265;-94
2024/01/18 02:13:58;;;;;;;37.73;21.63;;;;;;;-143.21;83.89;72813.91;4918859;29;20762;-92
2024/01/18 02:16:25;;;;;;;35.47;20.27;;;;;;;-143.21;83.91;72800.03;4921687;29;20209;-95
2024/01/18 02:18:52;;;;;;;36.07;21.10;;;;;;;-143.21;83.86;72804.00;4915737;29;20293;-94
2024/01/18 02:21:19;;;;;;;35.67;20.37;;;;;;;-143.21;83.81;72796.06;4914541;29;20209;-93
2024/01/18 02:23:48;;;;;;;33.00;19.97;;;;;;;-143.21;83.92;72790.09;4911428;29;20199;-93
2024/01/18 02:26:17;;;;;;;30.83;19.23;;;;;;;-143.21;84.07;72790.09;4911141;29;20630;-94
2024/01/18 02:28:54;;;;;;;33.03;18.87;;;;;;;-143.21;83.73;72784.16;4912736;29;20237;-93
2024/01/18 02:31:21;;;;;;;29.13;18.30;;;;;;;-143.21;83.80;72788.13;4911990;29;20572;-93
2024/01/18 02:33:48;;;;;;;32.27;18.53;;;;;;;-143.21;83.83;72796.06;4911290;29;20298;-94
2024/01/18 02:36:16;;;;;;;30.90;18.60;;;;;;;-143.21;84.17;72784.16;4909368;29;20206;-93
2024/01/18 02:38:43;;;;;;;34.20;19.17;;;;;;;-143.21;84.44;72792.09;4910292;29;20213;-94
2024/01/18 02:41:10;;;;;;;31.90;18.33;;;;;;;-143.21;84.98;72782.16;4911730;29;20596;-94
2024/01/18 02:43:38;;;;;;;31.67;19.03;;;;;;;-143.21;84.86;72776.22;4916410;29;20717;-95
2024/01/18 02:46:05;;;;;;;32.97;18.63;;;;;;;-143.21;85.07;72766.31;4913572;29;20639;-93
2024/01/18 02:48:33;;;;;;;30.23;18.20;;;;;;;-143.21;85.64;72750.44;4912049;29;20289;-94
2024/01/18 02:51:00;;;;;;;30.57;19.10;;;;;;;-143.21;85.21;72762.34;4912447;29;20211;-93
2024/01/18 02:53:27;;;;;;;29.10;17.70;;;;;;;-143.21;85.02;72768.28;4913445;29;20210;-93
2024/01/18 02:55:54;;;;;;;35.60;18.40;;;;;;;-143.21;85.20;72776.22;4911386;29;20209;-93
2024/01/18 02:58:21;;;;;;;31.33;18.37;;;;;;;-143.21;85.17;72770.28;4912538;29;20764;-94
2024/01/18 03:01:00;;;;;;;29.93;18.03;;;;;;;-143.21;85.07;72776.22;4918399;29;20202;-93
2024/01/18 03:03:26;;;;;;;33.03;17.53;;;;;;;-143.21;84.94;72754.41;4913958;29;20272;-93
2024/01/18 03:05:53;;;;;;;23.17;15.53;;;;;;;-143.21;84.25;72754.41;4911233;29;20228;-95
2024/01/18 03:08:20;;;;;;;26.00;15.23;;;;;;;-143.21;83.67;72760.34;4904791;29;20209;-93
2024/01/18 03:10:47;;;;;;;26.43;15.87;;;;;;;-143.21;83.72;72748.47;4908960;29;20202;-92
2024/01/18 03:13:14;;;;;;;23.50;15.27;;;;;;;-143.21;83.60;72760.34;4919686;29;20227;-93
2024/01/18 03:15:41;;;;;;;21.57;13.90;;;;;;;-143.21;83.71;72756.38;4927205;29;20233;-92
2024/01/18 03:18:09;;;;;;;21.70;14.43;;;;;;;-143.21;84.12;72764.31;4912757;29;20206;-94
2024/01/18 03:20:36;;;;;;;26.17;15.07;;;;;;;-143.21;83.97;72752.41;4909734;29;20269;-93
2024/01/18 03:23:04;;;;;;;23.67;14.23;;;;;;;-143.21;83.31;72750.44;4912245;29;20207;-93
2024/01/18 03:25:31;;;;;;;27.33;15.90;;;;;;;-143.21;83.48;72756.38;4913168;29;20213;-94
2024/01/18 03:27:59;;;;;;;28.50;16.60;;;;;;;-143.21;83.25;72738.53;4914111;29;20218;-94
2024/01/18 03:30:26;;;;;;;27.17;15.30;;;;;;;-143.21;83.42;72754.41;4909854;29;20600;-93
2024/01/18 03:32:53;;;;;;;22.93;15.00;;;;;;;-143.21;82.84;72746.47;4909211;29;20750;-93
2024/01/18 03:35:21;;;;;;;26.20;14.43;;;;;;;-143.21;83.14;72742.50;4910581;29;20214;-94
2024/01/18 03:37:48;;;;;;;23.53;14.00;;;;;;;-143.21;82.60;72748.47;4906552;29;20258;-94
2024/01/18 03:40:15;;;;;;;22.73;14.00;;;;;;;-143.21;82.61;72746.47;4906165;29;20213;-94
2024/01/18 03:42:42;;;;;;;25.77;14.70;;;;;;;-143.21;82.74;72744.50;4909819;29;20929;-93
2024/01/18 03:45:10;;;;;;;25.73;15.10;;;;;;;-143.21;82.70;72740.53;4915412;29;20213;-93
2024/01/18 03:47:37;;;;;;;25.17;15.20;;;;;;;-143.21;82.31;72726.63;4923649;29;20207;-93
2024/01/18 03:50:05;;;;;;;24.57;15.53;;;;;;;-143.21;82.44;72734.56;4910150;29;20232;-93
2024/01/18 03:52:33;;;;;;;28.40;16.83;;;;;;;-143.21;82.42;72732.59;4911870;29;20305;-93
2024/01/18 03:55:00;;;;;;;29.00;18.33;;;;;;;-143.21;82.50;72756.38;4908793;29;20206;-93
2024/01/18 03:57:27;;;;;;;28.57;18.53;;;;;;;-143.21;82.79;72762.34;4910891;29;20211;-93
2024/01/18 03:59:55;;;;;;;31.23;18.57;;;;;;;-143.21;83.20;72772.25;4910674;29;20226;-94
2024/01/18 04:02:22;;;;;;;34.43;19.00;;;;;;;-143.21;83.58;72782.16;4909839;29;20353;-94
2024/01/18 04:04:51;;;;;;;32.60;18.87;;;;;;;-143.21;84.32;72782.16;4913030;29;20595;-93
2024/01/18 04:07:18;;;;;;;33.27;20.10;;;;;;;-143.21;84.16;72782.16;4909617;29;20388;-93
2024/01/18 04:09:46;;;;;;;34.10;20.20;;;;;;;-143.21;84.19;72778.22;4912321;29;20793;-96
2024/01/18 04:12:13;;;;;;;34.67;20.37;;;;;;;-143.21;83.86;72764.31;4910876;29;20300;-96
2024/01/18 04:14:43;;;;;;;31.43;18.93;;;;;;;-143.21;84.28;72776.22;4910712;29;20669;-96
2024/01/18 04:17:11;;;;;;;32.63;18.80;;;;;;;-143.21;83.62;72770.28;4911541;29;20305;-96
2024/01/18 04:19:38;;;;;;;36.50;20.33;;;;;;;-143.21;83.97;72766.31;4912850;29;20287;-94
2024/01/18 04:22:05;;;;;;;32.50;18.77;;;;;;;-143.21;83.93;72756.38;4916257;29;20625;-93
2024/01/18 04:24:32;;;;;;;33.90;19.57;;;;;;;-143.21;83.49;72750.44;4918309;29;20569;-92
2024/01/18 04:27:01;;;;;;;30.77;18.87;;;;;;;-143.21;83.38;72764.31;4920562;29;20198;-94
2024/01/18 04:29:28;;;;;;;26.30;16.73;;;;;;;-143.21;83.67;72758.38;4917448;29;20328;-93
2024/01/18 04:31:55;;;;;;;32.93;19.47;;;;;;;-143.21;83.56;72778.22;4917903;29;20245;-94
2024/01/18 04:34:22;;;;;;;37.10;21.27;;;;;;;-143.21;83.84;72786.13;4914793;29;20241;-94
2024/01/18 04:36:49;;;;;;;38.53;21.57;;;;;;;-143.21;83.96;72786.13;4916403;29;20220;-94
2024/01/18 04:39:16;;;;;;;35.20;21.80;;;;;;;-143.21;84.33;72788.13;4915214;29;20228;-93
2024/01/18 04:41:53;;;;;;;;;;;;;;;;;;;;;
2024/01/18 04:44:22;;;;;;;36.80;21.73;;;;;;;-143.21;84.64;72800.03;4915774;29;20239;-93
2024/01/18 04:46:49;;;;;;;37.07;21.53;;;;;;;-143.21;85.18;72811.94;4917371;29;20211;-92
2024/01/18 04:49:17;;;;;;;37.77;20.53;;;;;;;-143.21;85.36;72784.16;4914218;29;20261;-94
2024/01/18 04:51:46;;;;;;;35.57;21.37;;;;;;;-143.21;85.29;72792.09;4916780;29;20214;-93
2024/01/18 04:54:13;;;;;;;36.97;21.70;;;;;;;-143.21;85.64;72802.00;4923348;29;20237;-93
2024/01/18 04:56:40;;;;;;;36.30;20.70;;;;;;;-143.21;85.33;72817.88;4912512;29;20219;-93
2024/01/18 04:59:08;;;;;;;33.00;20.87;;;;;;;-143.21;86.03;72811.94;4921644;29;20205;-92
2024/01/18 05:01:39;;;;;;;36.33;21.00;;;;;;;-143.21;86.01;72817.88;4922172;29;20207;-92
2024/01/18 05:04:06;;;;;;;36.07;20.80;;;;;;;-143.21;86.10;72805.97;4910650;29;20241;-92
2024/01/18 05:06:34;;;;;;;33.90;20.63;;;;;;;-143.21;86.46;72815.88;4914668;29;20202;-93
2024/01/18 05:09:01;;;;;;;36.03;21.00;;;;;;;-143.21;86.38;72811.94;4913309;29;20197;-93
2024/01/18 05:11:28;;;;;;;39.13;21.17;;;;;;;-143.21;86.62;72811.94;4910696;29;20214;-93
2024/01/18 05:13:55;;;;;;;39.73;21.93;;;;;;;-143.21;86.30;72804.00;4913190;29;20214;-91
2024/01/18 05:16:22;;;;;;;38.27;21.53;;;;;;;-143.21;85.78;72811.94;4924226;29;20246;-92
2024/01/18 05:18:50;;;;;;;41.80;24.67;;;;;;;-143.21;86.22;72839.69;4914021;29;20204;-92
2024/01/18 05:21:17;;;;;;;54.87;30.27;;;;;;;-143.21;85.90;72819.84;4911407;29;20220;-93
2024/01/18 05:23:46;;;;;;;49.73;27.83;;;;;;;-143.21;86.15;72807.97;4912754;29;20210;-94
2024/01/18 05:26:14;;;;;;;55.43;31.70;;;;;;;-143.21;86.66;72835.72;4912934;29;20578;-95
2024/01/18 05:28:41;;;;;;;49.97;29.37;;;;;;;-143.21;86.43;72841.69;4916494;29;20205;-95
2024/01/18 05:31:08;;;;;;;49.60;28.60;;;;;;;-143.21;86.53;72843.66;4912623;29;20569;-94
2024/01/18 05:33:35;;;;;;;51.10;28.03;;;;;;;-143.21;86.85;72843.66;4909071;29;20663;-94
2024/01/18 05:36:04;;;;;;;48.43;28.00;;;;;;;-143.21;86.80;72829.78;4910640;29;20217;-93
2024/01/18 05:38:49;;;;;;;46.23;27.53;;;;;;;-143.21;86.76;72817.88;4909034;29;20209;-92
2024/01/18 05:41:15;;;;;;;47.43;27.50;;;;;;;-143.21;86.87;72835.72;4910579;29;20210;-92
2024/01/18 05:43:42;;;;;;;44.57;26.57;;;;;;;-143.21;86.72;72831.75;4910549;29;20219;-92
2024/01/18 05:46:09;;;;;;;45.13;24.97;;;;;;;-143.21;86.63;72827.78;4910729;29;20204;-93
2024/01/18 05:48:36;;;;;;;47.10;26.30;;;;;;;-143.21;86.57;72827.78;4932800;29;20237;-91
2024/01/18 05:51:06;;;;;;;47.27;25.60;;;;;;;-143.21;86.83;72827.78;4920936;29;20230;-93
2024/01/18 05:53:34;;;;;;;45.00;25.80;;;;;;;-143.21;86.88;72829.78;4913226;29;20273;-90
2024/01/18 05:56:01;;;;;;;41.30;25.23;;;;;;;-143.21;86.84;72837.72;4917331;29;20216;-93
2024/01/18 05:58:31;;;;;;;43.73;24.60;;;;;;;-143.21;86.96;72837.72;4896482;29;20213;-91
2024/01/18 06:00:58;;;;;;;41.03;24.57;;;;;;;-143.21;87.53;72835.72;4914429;29;20225;-92
2024/01/18 06:03:25;;;;;;;44.50;25.73;;;;;;;-143.21;87.11;72831.75;4912497;29;20248;-92
2024/01/18 06:05:51;;;;;;;46.50;24.73;;;;;;;-143.21;86.92;72815.88;4914026;29;20611;-93
2024/01/18 06:08:20;;;;;;;41.77;24.00;;;;;;;-143.21;87.27;72807.97;4909439;29;20679;-93
2024/01/18 06:10:47;;;;;;;41.93;24.00;;;;;;;-143.21;87.40;72811.94;4911979;29;20326;-93
2024/01/18 06:13:14;;;;;;;43.73;25.13;;;;;;;-143.21;87.38;72815.88;4913425;29;20209;-94
2024/01/18 06:15:40;;;;;;;39.50;23.23;;;;;;;-143.21;87.59;72804.00;4912257;29;20201;-93
2024/01/18 06:18:07;;;;;;;41.60;24.10;;;;;;;-143.21;87.66;72798.03;4910920;29;20684;-94
2024/01/18 06:20:35;;;;;;;39.63;23.47;;;;;;;-143.21;88.01;72809.94;4911134;29;20695;-94
2024/01/18 06:23:02;;;;;;;45.67;25.90;;;;;;;-143.21;88.21;72813.91;4911671;29;20232;-93
2024/01/18 06:25:31;;;;;;;39.43;22.43;;;;;;;-143.21;88.01;72794.06;4911576;29;20226;-94
2024/01/18 06:27:58;;;;;;;42.90;22.73;;;;;;;-143.21;88.37;72796.06;4910876;29;20213;-93
2024/01/18 06:30:24;;;;;;;36.77;21.90;;;;;;;-143.21;88.06;72788.13;4910126;29;20248;-92
2024/01/18 06:32:51;;;;;;;43.70;24.63;;;;;;;-143.21;87.86;72776.22;4910205;29;20221;-91
2024/01/18 06:35:18;;;;;;;39.17;23.40;;;;;;;-143.21;87.26;72778.22;4912649;29;20692;-92
2024/01/18 06:37:45;;;;;;;38.10;22.33;;;;;;;-143.21;88.17;72768.28;4906900;29;20216;-93
2024/01/18 06:40:13;;;;;;;40.37;21.93;;;;;;;-143.21;88.02;72776.22;4907003;29;20218;-92
2024/01/18 06:42:41;;;;;;;42.80;20.70;;;;;;;-143.21;88.17;72772.25;4910162;29;20870;-92
2024/01/18 06:45:10;;;;;;;35.00;21.20;;;;;;;-143.21;88.52;72744.50;4926270;29;20197;-93
2024/01/18 06:47:36;;;;;;;39.90;23.37;;;;;;;-143.21;88.68;72742.50;4924150;29;20223;-93
2024/01/18 06:50:03;;;;;;;36.80;21.03;;;;;;;-143.21;88.62;72758.38;4911199;29;20235;-92
2024/01/18 06:52:30;;;;;;;44.73;24.57;;;;;;;-143.21;88.41;72742.50;4909213;29;20202;-94
2024/01/18 06:54:58;;;;;;;44.13;26.27;;;;;;;-143.21;88.59;72720.69;4912859;29;20216;-94
2024/01/18 06:57:25;;;;;;;42.83;24.63;;;;;;;-143.21;87.90;72740.53;4893162;29;20241;-92
2024/01/18 06:59:54;;;;;;;39.97;23.60;;;;;;;-143.21;87.79;72704.81;4909104;29;20280;-92
2024/01/18 07:02:24;;;;;;;33.87;22.10;;;;;;;-143.21;87.97;72718.69;4907947;29;20340;-92
2024/01/18 07:04:50;;;;;;;35.90;21.33;;;;;;;-143.21;88.22;72690.94;4907859;29;21047;-92
2024/01/18 07:07:17;;;;;;;35.20;21.37;;;;;;;-143.21;87.96;72696.88;4910743;29;20206;-91
2024/01/18 07:09:44;;;;;;;31.47;18.83;;;;;;;-143.21;88.16;72657.22;4910052;29;20238;-92
2024/01/18 07:12:11;;;;;;;36.33;19.93;;;;;;;-143.21;88.30;72657.22;4906196;29;20221;-92
2024/01/18 07:14:39;;;;;;;29.03;17.67;;;;;;;-143.21;88.53;72651.28;4908846;29;20701;-92
2024/01/18 07:17:07;;;;;;;31.50;18.63;;;;;;;-143.21;88.85;72649.28;4907664;29;20199;-93
2024/01/18 07:19:34;;;;;;;46.33;24.50;;;;;;;-143.21;88.19;72631.44;4911170;29;20210;-93
2024/01/18 07:22:01;;;;;;;40.23;22.20;;;;;;;-143.21;88.25;72599.69;4908933;29;20199;-93
2024/01/18 07:24:30;;;;;;;36.60;20.40;;;;;;;-143.21;88.02;72589.78;4908932;29;20210;-93
2024/01/18 07:26:57;;;;;;;34.77;21.07;;;;;;;-143.21;88.71;72587.81;4908607;29;20214;-92
2024/01/18 07:29:24;;;;;;;34.50;20.20;;;;;;;-143.21;88.32;72575.91;4894262;29;20839;-94
2024/01/18 07:31:51;;;;;;;30.90;16.90;;;;;;;-143.21;88.27;72532.28;4908577;29;20580;-90
2024/01/18 07:34:19;;;;;;;29.77;17.83;;;;;;;-143.21;88.04;72518.38;4906825;29;20289;-95
2024/01/18 07:36:46;;;;;;;35.30;18.90;;;;;;;-143.21;87.98;72534.25;4910928;29;20203;-95
2024/01/18 07:39:15;;;;;;;29.97;18.37;;;;;;;-143.21;87.80;72506.50;4909730;29;20309;-95
2024/01/18 07:41:42;;;;;;;32.00;16.83;;;;;;;-143.21;88.19;72526.31;4912409;29;20279;-94
2024/01/18 07:44:09;;;;;;;33.57;18.60;;;;;;;-143.21;87.90;72474.75;4909408;29;20222;-93
2024/01/18 07:46:35;;;;;;;28.07;16.53;;;;;;;-143.21;88.02;72504.50;4911526;29;20301;-94
2024/01/18 07:49:11;;;;;;;29.80;17.30;;;;;;;-143.21;88.06;72494.59;4907854;29;20692;-93
2024/01/18 07:51:40;;;;;;;29.33;16.73;;;;;;;-143.21;87.89;72486.66;4910287;29;20345;-92
2024/01/18 07:54:06;;;;;;;29.70;17.17;;;;;;;-143.21;87.31;72450.97;4909684;29;20563;-92
2024/01/18 07:56:34;;;;;;;28.93;17.17;;;;;;;-143.21;87.37;72433.09;4913260;29;20207;-93
2024/01/18 07:59:02;;;;;;;28.17;16.33;;;;;;;-143.21;87.24;72427.16;4911081;29;20206;-93
2024/01/18 08:01:29;;;;;;;24.80;14.53;;;;;;;-143.21;86.73;72407.31;4914328;29;20214;-92
2024/01/18 08:03:56;;;;;;;25.87;15.00;;;;;;;-143.21;86.09;72381.53;4915680;29;20230;-93
2024/01/18 08:06:23;;;;;;;25.53;14.77;;;;;;;-143.21;85.78;72365.69;4912624;29;20206;-92
2024/01/18 08:08:51;;;;;;;28.70;16.00;;;;;;;-143.21;85.29;72353.78;4913650;29;20218;-92
2024/01/18 08:11:18;;;;;;;25.77;14.70;;;;;;;-143.21;85.57;72339.91;4912573;29;20234;-92
2024/01/18 08:13:46;;;;;;;21.97;14.53;;;;;;;-143.21;85.54;72318.09;4910212;29;20240;-91
2024/01/18 08:16:13;;;;;;;20.80;14.33;;;;;;;-143.21;85.49;72298.25;4913630;29;20294;-94
2024/01/18 08:18:40;;;;;;;22.57;14.90;;;;;;;-143.21;84.96;72320.06;4911412;29;20207;-93
2024/01/18 08:21:06;;;;;;;27.00;14.73;;;;;;;-143.21;83.42;72335.94;4912825;29;20581;-93
2024/01/18 08:23:34;;;;;;;24.10;14.40;;;;;;;-143.21;83.51;72331.97;4917462;29;20195;-94
2024/01/18 08:26:02;;;;;;;21.27;13.67;;;;;;;-143.21;84.25;72318.09;4917953;29;20271;-95
2024/01/18 08:28:29;;;;;;;21.20;14.30;;;;;;;-143.21;83.41;72304.19;4912822;29;20223;-95
2024/01/18 08:31:01;;;;;;;25.13;15.43;;;;;;;-143.21;83.39;72298.25;4936770;29;20237;-93
2024/01/18 08:33:28;;;;;;;22.10;14.20;;;;;;;-143.21;83.04;72300.25;4923848;29;20278;-93
2024/01/18 08:35:55;;;;;;;24.13;14.53;;;;;;;-143.21;82.60;72298.25;4917790;29;20690;-93
2024/01/18 08:38:22;;;;;;;23.70;14.47;;;;;;;-143.21;81.76;72298.25;4924745;29;20270;-95
2024/01/18 08:40:49;;;;;;;22.40;14.70;;;;;;;-143.21;81.94;72298.25;4918667;29;20234;-93
2024/01/18 08:43:22;;;;;;;25.10;15.50;;;;;;;-143.21;82.00;72294.28;4912168;29;20231;-93
2024/01/18 08:45:49;;;;;;;23.80;13.77;;;;;;;-143.21;81.59;72296.28;4913499;29;20584;-93
2024/01/18 08:48:16;;;;;;;21.90;14.03;;;;;;;-143.21;81.50;72324.03;4913737;29;20585;-93
2024/01/18 08:50:42;;;;;;;24.53;14.70;;;;;;;-143.21;82.36;72329.97;4916407;29;20230;-93
2024/01/18 08:53:09;;;;;;;26.07;14.93;;;;;;;-143.21;82.60;72322.06;4906168;29;20213;-94
2024/01/18 08:55:38;;;;;;;26.13;15.73;;;;;;;-143.21;82.39;72312.13;4911263;29;20207;-94
2024/01/18 08:58:05;;;;;;;24.23;15.87;;;;;;;-143.21;82.07;72320.06;4911606;29;20658;-93
2024/01/18 09:00:33;;;;;;;28.00;17.87;;;;;;;-143.21;82.66;72300.25;4912444;29;20720;-93
2024/01/18 09:03:01;;;;;;;29.33;17.33;;;;;;;-143.21;82.48;72312.13;4912431;29;20326;-93
2024/01/18 09:05:28;;;;;;;29.57;18.00;;;;;;;-143.21;82.68;72312.13;4912730;29;20214;-93
2024/01/18 09:07:55;;;;;;;27.07;17.40;;;;;;;-143.21;83.13;72300.25;4911625;29;20263;-93
2024/01/18 09:10:22;;;;;;;29.40;17.50;;;;;;;-143.21;82.58;72302.22;4898572;29;20211;-93
2024/01/18 09:12:49;;;;;;;33.47;18.77;;;;;;;-143.21;82.14;72300.25;4912400;29;20563;-94
2024/01/18 09:15:16;;;;;;;36.13;18.73;;;;;;;-143.21;82.62;72286.34;4910465;29;20233;-94
2024/01/18 09:17:44;;;;;;;33.90;18.10;;;;;;;-143.21;82.98;72278.41;4910095;29;20207;-94
2024/01/18 09:20:11;;;;;;;31.03;18.80;;;;;;;-143.21;82.73;72266.53;4911619;29;20211;-92
2024/01/18 09:22:38;;;;;;;31.17;17.53;;;;;;;-143.21;82.21;72278.41;4911165;29;20234;-93
2024/01/18 09:25:07;;;;;;;28.77;17.07;;;;;;;-143.21;82.21;72246.69;4912172;29;20202;-93
2024/01/18 09:27:34;;;;;;;26.80;16.73;;;;;;;-143.21;82.82;72222.91;4910987;29;20565;-94
2024/01/18 09:30:01;;;;;;;30.77;17.70;;;;;;;-143.21;81.35;72216.94;4913339;29;20229;-92
2024/01/18 09:32:28;;;;;;;29.63;17.40;;;;;;;-143.21;81.43;72187.19;4910761;29;20257;-94
2024/01/18 09:34:56;;;;;;;32.93;18.30;;;;;;;-143.21;81.57;72167.38;4910163;29;20214;-92
2024/01/18 09:37:23;;;;;;;28.67;16.33;;;;;;;-143.21;81.97;72167.38;4907025;29;20655;-94
2024/01/18 09:39:50;;;;;;;28.13;17.10;;;;;;;-143.21;81.40;72173.31;4913844;29;20201;-95
2024/01/18 09:42:18;;;;;;;29.80;17.07;;;;;;;-143.21;81.57;72179.25;4916461;29;20209;-94
2024/01/18 09:44:47;;;;;;;31.77;17.83;;;;;;;-143.21;81.34;72151.50;4928137;29;20227;-94
2024/01/18 09:47:15;;;;;;;32.03;17.63;;;;;;;-143.21;80.60;72157.44;4916005;29;20368;-94
2024/01/18 09:49:44;;;;;;;28.87;16.50;;;;;;;-143.21;81.02;72121.75;4911979;29;20245;-94
2024/01/18 09:52:12;;;;;;;25.47;16.10;;;;;;;-143.21;80.89;72103.91;4904621;29;20235;-96
2024/01/18 09:54:42;;;;;;;27.77;14.73;;;;;;;-143.21;81.52;72070.19;4912622;29;20199;-95
2024/01/18 09:57:14;;;;;;;25.73;15.23;;;;;;;-143.21;80.46;72026.56;4913575;29;20241;-92
2024/01/18 10:02:24;;;;;;;26.23;16.50;;;;;;;-143.21;79.62;71992.88;4902263;29;20703;-93
2024/01/18 10:04:51;;;;;;;24.53;15.67;;;;;;;-143.21;79.54;71947.25;4900619;29;20211;-92
2024/01/18 10:07:20;;;;;;;25.73;15.17;;;;;;;-143.21;78.53;71911.56;4899912;29;20210;-92
2024/01/18 10:09:47;;;;;;;24.23;13.70;;;;;;;-143.21;77.64;71820.34;4899857;29;20233;-92
2024/01/18 10:12:15;;;;;;;25.97;13.53;;;;;;;-143.21;72.42;71635.94;4901441;29;20343;-93
2024/01/18 10:14:42;;;;;;;20.37;12.63;;;;;;;-143.21;68.66;71491.22;4917803;29;20227;-94
2024/01/18 10:17:09;;;;;;;19.67;12.13;;;;;;;-143.21;65.26;71403.97;4912574;29;20203;-95
2024/01/18 10:19:40;;;;;;;17.17;11.93;;;;;;;-143.21;63.97;71314.75;4909626;29;20621;-94
2024/01/18 10:22:07;;;;;;;20.40;12.80;;;;;;;-143.21;60.34;71223.56;4911074;29;20207;-94
2024/01/18 10:24:40;;;;;;;23.37;12.30;;;;;;;-143.21;59.61;71201.75;4910359;29;20202;-93
2024/01/18 10:27:07;;;;;;;18.27;11.80;;;;;;;-143.21;59.08;71148.22;4907576;29;20234;-94
2024/01/18 10:29:36;;;;;;;24.43;13.20;;;;;;;-143.21;57.71;71126.41;4918348;29;20616;-95
2024/01/18 10:32:06;;;;;;;23.90;13.17;;;;;;;-143.21;57.42;71108.56;4923051;29;20237;-96
2024/01/18 10:34:35;;;;;;;21.13;13.57;;;;;;;-143.21;56.29;71037.22;4912304;29;20207;-95
2024/01/18 10:37:02;;;;;;;19.77;12.40;;;;;;;-143.21;55.57;70951.97;4910313;29;20249;-92
2024/01/18 10:39:56;;;;;;;22.27;13.50;;;;;;;-143.21;53.76;70846.91;4911608;29;20251;-94
2024/01/18 10:42:24;;;;;;;24.37;12.90;;;;;;;-143.21;50.52;70674.44;4910604;29;20210;-95
2024/01/18 10:44:51;;;;;;;20.60;13.02;;;;;;;-143.21;48.79;70601.09;4908069;29;20619;-91
2024/01/18 10:47:18;;;;;;;23.55;13.40;;;;;;;-143.21;48.21;70547.59;4909450;29;20203;-92
2024/01/18 10:49:46;;;;;;;22.70;12.82;;;;;;;-143.21;47.37;70462.34;4910300;29;20712;-93
2024/01/18 10:52:13;;;;;;;22.92;13.25;;;;;;;-143.21;45.24;70394.97;4909983;29;20232;-94
2024/01/18 10:54:40;;;;;;;19.17;13.30;;;;;;;-143.21;44.51;70387.03;4913497;29;20283;-94
2024/01/18 10:57:07;;;;;;;22.02;13.85;;;;;;;-143.21;44.98;70426.69;4907646;29;20662;-93
2024/01/18 10:59:36;;;;;;;23.77;13.35;;;;;;;-143.21;45.08;70406.84;4910079;29;20701;-93
2024/01/18 11:02:02;;;;;;;23.73;12.35;;;;;;;-143.21;44.75;70387.03;4913372;29;20214;-94
2024/01/18 11:04:31;;;;;;;18.02;11.38;;;;;;;-143.21;43.61;70329.56;4911517;29;20658;-94
2024/01/18 11:06:58;;;;;;;16.20;11.65;;;;;;;-143.21;43.55;70363.25;4909628;29;20607;-93
2024/01/18 11:09:28;;;;;;;17.92;11.10;;;;;;;-143.21;44.29;70377.13;4906971;29;20210;-93